createdAt,value
2019-03-21T00:01:51.360Z,102601.27
2019-03-21T00:04:22.244Z,102593.73
2019-03-21T00:06:53.163Z,102593.74
2019-03-21T00:09:23.881Z,102596.40
2019-03-21T00:11:59.950Z,102596.41
2019-03-21T00:14:39.158Z,102598.61
2019-03-21T00:17:13.247Z,102597.73
2019-03-21T00:19:44.392Z,102605.73
2019-03-21T00:22:16.437Z,102602.61
2019-03-21T00:24:47.028Z,102610.19
2019-03-21T00:27:17.409Z,102605.28
2019-03-21T00:29:48.175Z,102606.66
2019-03-21T00:32:19.170Z,102611.08
2019-03-21T00:34:49.830Z,102604.88
2019-03-21T00:37:20.731Z,102603.98
2019-03-21T00:39:57.728Z,102602.20
2019-03-21T00:42:28.242Z,102604.86
2019-03-21T00:44:59.863Z,102608.87
2019-03-21T00:47:30.445Z,102606.20
2019-03-21T00:50:01.209Z,102606.20
2019-03-21T00:52:31.897Z,102598.20
2019-03-21T00:55:02.821Z,102599.13
2019-03-21T00:57:33.317Z,102604.86
2019-03-21T01:00:06.380Z,102606.66
2019-03-21T01:02:38.150Z,102606.66
2019-03-21T01:05:11.460Z,102608.45
2019-03-21T01:07:41.885Z,102605.34
2019-03-21T01:10:18.582Z,102607.99
2019-03-21T01:12:49.105Z,102603.53
2019-03-21T01:15:19.810Z,102599.55
2019-03-21T01:17:50.309Z,102599.55
2019-03-21T01:20:20.930Z,102598.68
2019-03-21T01:22:51.414Z,102598.73
2019-03-21T01:25:27.860Z,102593.40
2019-03-21T01:27:58.313Z,102589.87
2019-03-21T01:30:28.792Z,102589.03
2019-03-21T01:32:59.361Z,102577.56
2019-03-21T01:35:30.629Z,102573.59
2019-03-21T01:38:02.411Z,102570.10
2019-03-21T01:40:39.364Z,102570.10
2019-03-21T01:43:09.981Z,102569.19
2019-03-21T01:45:42.000Z,102573.17
2019-03-21T01:48:12.627Z,102569.17
2019-03-21T01:50:43.950Z,102566.06
2019-03-21T01:53:16.142Z,102572.70
2019-03-21T01:55:46.711Z,102578.91
2019-03-21T01:58:17.719Z,102574.90
2019-03-21T02:00:55.503Z,102573.11
2019-03-21T02:03:26.992Z,102568.66
2019-03-21T02:05:59.159Z,102576.19
2019-03-21T02:08:29.693Z,102577.05
2019-03-21T02:11:00.258Z,102570.84
2019-03-21T02:13:31.002Z,102577.03
2019-03-21T02:16:02.152Z,102573.92
2019-03-21T02:18:32.485Z,102567.72
2019-03-21T02:21:03.215Z,102570.38
2019-03-21T02:23:34.029Z,102567.72
2019-03-21T02:26:04.564Z,102569.46
2019-03-21T02:28:35.039Z,102567.66
2019-03-21T02:31:05.611Z,102571.65
2019-03-21T02:33:42.366Z,102566.32
2019-03-21T02:36:14.222Z,102557.92
2019-03-21T02:38:44.880Z,102562.78
2019-03-21T02:41:18.671Z,102560.07
2019-03-21T02:43:49.213Z,102563.18
2019-03-21T02:46:20.023Z,102560.53
2019-03-21T02:48:51.083Z,102560.98
2019-03-21T02:51:22.018Z,102561.87
2019-03-21T02:53:52.357Z,102567.20
2019-03-21T02:56:25.211Z,102565.91
2019-03-21T02:58:56.919Z,102565.00
2019-03-21T03:01:27.753Z,102566.79
2019-03-21T03:03:59.260Z,102563.72
2019-03-21T03:06:29.716Z,102561.94
2019-03-21T03:09:00.258Z,102573.10
2019-03-21T03:11:30.712Z,102569.98
2019-03-21T03:14:04.340Z,102574.84
2019-03-21T03:16:33.765Z,102572.23
2019-03-21T03:19:04.361Z,102568.24
2019-03-21T03:21:35.558Z,102571.38
2019-03-21T03:24:06.497Z,102569.19
2019-03-21T03:26:37.018Z,102567.91
2019-03-21T03:29:07.810Z,102564.80
2019-03-21T03:31:38.363Z,102570.53
2019-03-21T03:34:09.262Z,102570.10
2019-03-21T03:36:41.196Z,102574.09
2019-03-21T03:39:11.807Z,102574.52
2019-03-21T03:41:42.398Z,102570.52
2019-03-21T03:44:13.045Z,102566.11
2019-03-21T03:46:44.282Z,102568.73
2019-03-21T03:49:14.882Z,102581.15
2019-03-21T03:51:45.608Z,102580.28
2019-03-21T03:54:16.271Z,102585.56
2019-03-21T03:56:46.847Z,102582.49
2019-03-21T03:59:17.381Z,102584.69
2019-03-21T04:01:48.011Z,102574.05
2019-03-21T04:04:19.162Z,102581.15
2019-03-21T04:06:49.747Z,102581.15
2019-03-21T04:09:20.550Z,102583.77
2019-03-21T04:11:51.464Z,102583.70
2019-03-21T04:14:21.881Z,102577.05
2019-03-21T04:16:53.198Z,102575.72
2019-03-21T04:19:23.873Z,102581.51
2019-03-21T04:21:54.711Z,102586.82
2019-03-21T04:24:25.219Z,102585.03
2019-03-21T04:26:55.779Z,102580.62
2019-03-21T04:29:26.362Z,102583.25
2019-03-21T04:31:56.893Z,102579.70
2019-03-21T04:34:27.407Z,102588.09
2019-03-21T04:36:57.962Z,102580.57
2019-03-21T04:39:28.493Z,102592.55
2019-03-21T04:41:58.970Z,102593.88
2019-03-21T04:44:29.594Z,102597.88
2019-03-21T04:47:00.211Z,102587.21
2019-03-21T04:49:32.431Z,102591.63
2019-03-21T04:52:03.267Z,102593.42
2019-03-21T04:54:34.162Z,102593.40
2019-03-21T04:57:04.649Z,102601.34
2019-03-21T04:59:35.366Z,102598.20
2019-03-21T05:02:06.056Z,102601.80
2019-03-21T05:04:37.492Z,102603.53
2019-03-21T05:07:08.338Z,102612.86
2019-03-21T05:09:38.876Z,102620.37
2019-03-21T05:12:09.422Z,102615.91
2019-03-21T05:14:39.898Z,102621.64
2019-03-21T05:17:11.140Z,102618.97
2019-03-21T05:19:41.675Z,102619.84
2019-03-21T05:22:12.404Z,102608.72
2019-03-21T05:24:44.204Z,102618.92
2019-03-21T05:27:15.169Z,102614.06
2019-03-21T05:29:45.676Z,102616.26
2019-03-21T05:32:16.501Z,102623.79
2019-03-21T05:34:47.684Z,102620.19
2019-03-21T05:37:18.420Z,102614.85
2019-03-21T05:39:49.039Z,102614.78
2019-03-21T05:42:19.733Z,102617.36
2019-03-21T05:44:50.515Z,102610.17
2019-03-21T05:47:21.107Z,102613.16
2019-03-21T05:49:51.927Z,102619.29
2019-03-21T05:52:22.416Z,102619.30
2019-03-21T05:54:53.050Z,102614.75
2019-03-21T05:57:23.933Z,102619.16
2019-03-21T05:59:54.413Z,102631.94
2019-03-21T06:02:26.541Z,102640.39
2019-03-21T06:04:58.314Z,102640.41
2019-03-21T06:07:31.608Z,102647.99
2019-03-21T06:10:02.209Z,102651.00
2019-03-21T06:12:36.319Z,102648.71
2019-03-21T06:15:10.486Z,102647.69
2019-03-21T06:17:41.169Z,102658.76
2019-03-21T06:20:29.919Z,102658.72
2019-03-21T06:23:15.679Z,102660.37
2019-03-21T06:26:01.490Z,102667.80
2019-03-21T06:28:32.502Z,102666.62
2019-03-21T06:31:03.200Z,102666.80
2019-03-21T06:33:33.741Z,102672.03
2019-03-21T06:36:05.364Z,102668.02
2019-03-21T06:38:36.408Z,102670.65
2019-03-21T06:41:07.056Z,102674.71
2019-03-21T06:43:37.877Z,102677.02
2019-03-21T06:46:09.905Z,102683.58
2019-03-21T06:48:40.994Z,102672.08
2019-03-21T06:51:11.928Z,102671.52
2019-03-21T06:53:42.798Z,102674.80
2019-03-21T06:56:13.644Z,102672.61
2019-03-21T06:58:44.797Z,102675.55
2019-03-21T07:01:15.570Z,102680.02
2019-03-21T07:03:46.088Z,102674.03
2019-03-21T07:06:17.904Z,102682.97
2019-03-21T07:08:49.796Z,102689.05
2019-03-21T07:11:20.232Z,102679.96
2019-03-21T07:13:51.072Z,102675.41
2019-03-21T07:16:24.974Z,102685.22
2019-03-21T07:18:55.581Z,102690.59
2019-03-21T07:21:27.996Z,102692.33
2019-03-21T07:24:01.977Z,102695.55
2019-03-21T07:26:33.579Z,102691.19
2019-03-21T07:29:04.177Z,102700.23
2019-03-21T07:31:34.731Z,102704.78
2019-03-21T07:34:07.388Z,102702.61
2019-03-21T07:36:37.992Z,102712.27
2019-03-21T07:39:08.967Z,102714.97
2019-03-21T07:41:40.125Z,102710.77
2019-03-21T07:44:10.902Z,102716.12
2019-03-21T07:46:41.713Z,102707.41
2019-03-21T07:49:12.769Z,102709.31
2019-03-21T07:51:45.203Z,102709.19
2019-03-21T07:54:15.465Z,102714.72
2019-03-21T07:56:46.249Z,102713.45
2019-03-21T07:59:16.924Z,102715.55
2019-03-21T08:01:47.684Z,102720.33
2019-03-21T08:04:18.436Z,102713.70
2019-03-21T08:06:50.099Z,102712.00
2019-03-21T08:09:21.156Z,102716.93
2019-03-21T08:11:51.820Z,102705.76
2019-03-21T08:14:23.366Z,102715.69
2019-03-21T08:16:54.267Z,102718.63
2019-03-21T08:19:24.960Z,102717.27
2019-03-21T08:21:57.636Z,102718.40
2019-03-21T08:24:28.746Z,102728.27
2019-03-21T08:26:59.133Z,102734.94
2019-03-21T08:29:30.062Z,102727.63
2019-03-21T08:32:00.451Z,102727.63
2019-03-21T08:34:32.773Z,102723.16
2019-03-21T08:37:03.537Z,102720.83
2019-03-21T08:39:34.486Z,102723.34
2019-03-21T08:42:05.069Z,102721.61
2019-03-21T08:44:35.606Z,102721.61
2019-03-21T08:47:06.276Z,102723.21
2019-03-21T08:49:36.799Z,102711.11
2019-03-21T08:52:07.204Z,102718.39
2019-03-21T08:54:37.941Z,102722.33
2019-03-21T08:57:08.438Z,102718.25
2019-03-21T08:59:39.003Z,102724.95
2019-03-21T09:02:09.569Z,102721.30
2019-03-21T09:04:40.072Z,102725.00
2019-03-21T09:07:12.671Z,102729.90
2019-03-21T09:09:43.680Z,102728.33
2019-03-21T09:12:14.650Z,102711.98
2019-03-21T09:14:48.114Z,102722.16
2019-03-21T09:17:18.758Z,102718.77
2019-03-21T09:19:50.928Z,102722.09
2019-03-21T09:22:21.616Z,102723.73
2019-03-21T09:24:52.949Z,102721.37
2019-03-21T09:27:23.420Z,102733.00
2019-03-21T09:29:54.616Z,102738.80
2019-03-21T09:32:26.282Z,102732.84
2019-03-21T09:34:57.275Z,102728.77
2019-03-21T09:37:28.531Z,102722.33
2019-03-21T09:39:59.164Z,102719.27
2019-03-21T09:42:30.082Z,102719.14
2019-03-21T09:45:00.935Z,102709.95
2019-03-21T09:47:31.748Z,102712.47
2019-03-21T09:50:03.138Z,102722.19
2019-03-21T09:52:33.539Z,102725.17
2019-03-21T09:55:06.976Z,102722.22
2019-03-21T09:57:37.483Z,102721.17
2019-03-21T10:00:10.038Z,102714.14
2019-03-21T10:02:41.023Z,102716.80
2019-03-21T10:05:11.954Z,102706.52
2019-03-21T10:07:43.564Z,102714.11
2019-03-21T10:10:17.266Z,102705.75
2019-03-21T10:12:47.973Z,102706.86
2019-03-21T10:15:18.463Z,102709.52
2019-03-21T10:17:49.114Z,102719.50
2019-03-21T10:20:19.728Z,102723.91
2019-03-21T10:22:50.203Z,102723.12
2019-03-21T10:25:20.906Z,102726.25
2019-03-21T10:27:51.692Z,102727.55
2019-03-21T10:30:39.605Z,102725.73
2019-03-21T10:33:11.688Z,102719.73
2019-03-21T10:35:42.562Z,102719.73
2019-03-21T10:38:13.164Z,102720.03
2019-03-21T10:40:44.135Z,102718.43
2019-03-21T10:43:15.624Z,102715.58
2019-03-21T10:45:46.282Z,102719.44
2019-03-21T10:48:16.812Z,102716.44
2019-03-21T10:50:47.764Z,102711.95
2019-03-21T10:53:18.952Z,102713.48
2019-03-21T10:55:49.618Z,102710.83
2019-03-21T10:58:21.650Z,102711.34
2019-03-21T11:00:52.588Z,102708.03
2019-03-21T11:03:23.475Z,102704.63
2019-03-21T11:05:54.486Z,102690.73
2019-03-21T11:08:26.787Z,102688.55
2019-03-21T11:10:59.124Z,102682.42
2019-03-21T11:13:29.712Z,102683.83
2019-03-21T11:16:00.645Z,102677.02
2019-03-21T11:18:35.910Z,102670.72
2019-03-21T11:21:03.836Z,102680.75
2019-03-21T11:23:35.754Z,102673.42
2019-03-21T11:26:06.622Z,102673.63
2019-03-21T11:28:37.075Z,102665.58
2019-03-21T11:31:09.664Z,102666.34
2019-03-21T11:33:40.250Z,102664.30
2019-03-21T11:36:10.894Z,102656.63
2019-03-21T11:38:42.752Z,102660.55
2019-03-21T11:41:14.124Z,102656.30
2019-03-21T11:43:46.563Z,102650.09
2019-03-21T11:46:17.509Z,102654.63
2019-03-21T11:48:47.951Z,102646.34
2019-03-21T11:51:19.927Z,102652.40
2019-03-21T11:53:50.910Z,102652.48
2019-03-21T11:56:21.466Z,102653.53
2019-03-21T11:58:52.221Z,102652.89
2019-03-21T12:01:24.082Z,102641.55
2019-03-21T12:03:54.848Z,102642.96
2019-03-21T12:06:27.567Z,102643.34
2019-03-21T12:08:59.599Z,102638.78
2019-03-21T12:11:30.371Z,102642.02
2019-03-21T12:14:03.109Z,102631.34
2019-03-21T12:16:33.920Z,102642.09
2019-03-21T12:19:04.961Z,102631.16
2019-03-21T12:21:35.720Z,102637.69
2019-03-21T12:24:07.137Z,102635.08
2019-03-21T12:26:37.852Z,102641.05
2019-03-21T12:29:08.581Z,102641.67
2019-03-21T12:31:39.193Z,102646.64
2019-03-21T12:34:09.823Z,102637.06
2019-03-21T12:36:40.543Z,102640.60
2019-03-21T12:39:12.344Z,102632.21
2019-03-21T12:41:43.086Z,102637.31
2019-03-21T12:44:13.846Z,102638.16
2019-03-21T12:46:45.518Z,102633.48
2019-03-21T12:49:17.232Z,102630.08
2019-03-21T12:51:48.348Z,102625.83
2019-03-21T12:54:19.134Z,102631.52
2019-03-21T12:56:52.876Z,102632.03
2019-03-21T12:59:22.454Z,102624.30
2019-03-21T13:01:53.507Z,102629.97
2019-03-21T13:04:24.654Z,102625.22
2019-03-21T13:06:56.237Z,102619.06
2019-03-21T13:09:28.085Z,102618.73
2019-03-21T13:11:58.675Z,102607.90
2019-03-21T13:14:29.454Z,102612.17
2019-03-21T13:17:00.287Z,102608.81
2019-03-21T13:19:30.777Z,102607.80
2019-03-21T13:22:01.797Z,102607.05
2019-03-21T13:24:32.461Z,102602.41
2019-03-21T13:27:03.657Z,102604.80
2019-03-21T13:29:34.726Z,102601.31
2019-03-21T13:32:05.323Z,102596.02
2019-03-21T13:34:36.355Z,102605.22
2019-03-21T13:37:07.275Z,102604.73
2019-03-21T13:39:38.046Z,102595.32
2019-03-21T13:42:10.285Z,102593.88
2019-03-21T13:44:41.206Z,102588.05
2019-03-21T13:47:12.449Z,102583.98
2019-03-21T13:49:43.777Z,102585.69
2019-03-21T13:52:14.867Z,102577.16
2019-03-21T13:54:48.436Z,102574.38
2019-03-21T13:57:20.110Z,102571.97
2019-03-21T13:59:52.521Z,102566.97
2019-03-21T14:02:23.588Z,102569.80
2019-03-21T14:04:54.149Z,102570.38
2019-03-21T14:07:25.567Z,102566.06
2019-03-21T14:09:57.006Z,102556.55
2019-03-21T14:12:27.587Z,102561.14
2019-03-21T14:14:59.445Z,102557.83
2019-03-21T14:17:32.295Z,102562.42
2019-03-21T14:20:02.867Z,102560.17
2019-03-21T14:22:35.220Z,102558.17
2019-03-21T14:25:07.436Z,102558.17
2019-03-21T14:27:40.072Z,102554.86
2019-03-21T14:30:16.946Z,102560.09
2019-03-21T14:32:48.429Z,102563.22
2019-03-21T14:35:19.960Z,102568.48
2019-03-21T14:37:53.010Z,102561.55
2019-03-21T14:40:23.766Z,102561.39
2019-03-21T14:42:54.821Z,102554.02
2019-03-21T14:45:25.237Z,102558.80
2019-03-21T14:47:55.857Z,102564.05
2019-03-21T14:50:26.283Z,102560.70
2019-03-21T14:52:57.123Z,102563.52
2019-03-21T14:55:27.675Z,102570.23
2019-03-21T14:57:58.522Z,102564.59
2019-03-21T15:00:30.152Z,102562.94
2019-03-21T15:03:02.548Z,102562.94
2019-03-21T15:05:33.218Z,102569.53
2019-03-21T15:08:09.251Z,102571.92
2019-03-21T15:10:42.731Z,102571.92
2019-03-21T15:13:14.144Z,102565.81
2019-03-21T15:15:45.038Z,102569.82
2019-03-21T15:18:15.925Z,102577.61
2019-03-21T15:20:46.794Z,102578.08
2019-03-21T15:23:19.744Z,102582.50
2019-03-21T15:25:50.504Z,102579.16
2019-03-21T15:28:24.313Z,102576.48
2019-03-21T15:30:55.834Z,102571.86
2019-03-21T15:33:26.986Z,102571.06
2019-03-21T15:35:59.414Z,102575.24
2019-03-21T15:38:32.624Z,102575.24
2019-03-21T15:41:03.540Z,102571.38
2019-03-21T15:43:37.011Z,102573.47
2019-03-21T15:46:10.266Z,102564.11
2019-03-21T15:48:41.391Z,102558.94
2019-03-21T15:51:12.222Z,102562.45
2019-03-21T15:53:53.145Z,102559.56
2019-03-21T15:56:15.338Z,102557.00
2019-03-21T15:58:46.142Z,102560.98
2019-03-21T16:01:17.087Z,102563.95
2019-03-21T16:03:48.718Z,102562.36
2019-03-21T16:06:19.778Z,102562.66
2019-03-21T16:08:50.992Z,102560.48
2019-03-21T16:11:23.356Z,102558.36
2019-03-21T16:13:54.097Z,102560.31
2019-03-21T16:16:24.815Z,102560.45
2019-03-21T16:18:55.674Z,102557.96
2019-03-21T16:21:26.414Z,102550.56
2019-03-21T16:24:04.973Z,102550.71
2019-03-21T16:26:29.650Z,102551.66
2019-03-21T16:29:00.558Z,102548.64
2019-03-21T16:31:31.341Z,102551.54
2019-03-21T16:34:05.001Z,102551.67
2019-03-21T16:36:36.052Z,102550.38
2019-03-21T16:39:08.218Z,102557.64
2019-03-21T16:41:39.269Z,102554.23
2019-03-21T16:44:10.087Z,102561.36
2019-03-21T16:46:40.856Z,102552.48
2019-03-21T16:49:11.749Z,102549.45
2019-03-21T16:51:44.287Z,102554.00
2019-03-21T16:54:17.394Z,102558.12
2019-03-21T16:56:48.027Z,102555.58
2019-03-21T16:59:18.848Z,102554.77
2019-03-21T17:01:50.173Z,102549.24
2019-03-21T17:04:21.088Z,102557.31
2019-03-21T17:06:52.530Z,102549.38
2019-03-21T17:09:23.462Z,102553.42
2019-03-21T17:11:54.841Z,102559.77
2019-03-21T17:14:25.415Z,102566.94
2019-03-21T17:16:56.215Z,102566.47
2019-03-21T17:19:27.134Z,102564.63
2019-03-21T17:21:57.823Z,102569.58
2019-03-21T17:24:29.874Z,102576.80
2019-03-21T17:27:01.249Z,102570.55
2019-03-21T17:29:33.390Z,102565.79
2019-03-21T17:32:04.156Z,102568.16
2019-03-21T17:34:35.147Z,102567.75
2019-03-21T17:37:07.534Z,102576.34
2019-03-21T17:39:38.594Z,102570.67
2019-03-21T17:42:09.398Z,102567.12
2019-03-21T17:44:40.311Z,102575.19
2019-03-21T17:47:11.312Z,102580.16
2019-03-21T17:49:42.280Z,102581.56
2019-03-21T17:52:13.453Z,102584.73
2019-03-21T17:54:44.335Z,102586.97
2019-03-21T17:57:14.929Z,102589.59
2019-03-21T17:59:46.615Z,102589.59
2019-03-21T18:02:17.293Z,102591.36
2019-03-21T18:04:48.372Z,102590.43
2019-03-21T18:07:20.775Z,102594.02
2019-03-21T18:09:51.879Z,102601.13
2019-03-21T18:12:23.226Z,102599.36
2019-03-21T18:14:54.006Z,102599.39
2019-03-21T18:17:26.566Z,102593.60
2019-03-21T18:19:58.469Z,102601.22
2019-03-21T18:22:28.999Z,102599.42
2019-03-21T18:25:02.086Z,102602.13
2019-03-21T18:27:34.027Z,102603.41
2019-03-21T18:30:07.855Z,102597.62
2019-03-21T18:32:38.773Z,102598.55
2019-03-21T18:35:09.336Z,102594.94
2019-03-21T18:37:40.144Z,102595.87
2019-03-21T18:40:12.967Z,102589.28
2019-03-21T18:42:43.368Z,102590.61
2019-03-21T18:45:15.165Z,102595.99
2019-03-21T18:47:45.893Z,102594.19
2019-03-21T18:50:16.920Z,102596.46
2019-03-21T18:52:48.786Z,102594.22
2019-03-21T18:55:19.489Z,102600.03
2019-03-21T18:57:50.300Z,102603.55
2019-03-21T19:00:21.219Z,102601.75
2019-03-21T19:02:52.950Z,102598.70
2019-03-21T19:05:23.514Z,102595.64
2019-03-21T19:07:55.770Z,102604.05
2019-03-21T19:10:26.982Z,102603.17
2019-03-21T19:12:57.580Z,102606.34
2019-03-21T19:15:33.072Z,102608.52
2019-03-21T19:18:02.882Z,102606.34
2019-03-21T19:20:35.328Z,102606.34
2019-03-21T19:23:06.104Z,102599.71
2019-03-21T19:25:36.731Z,102602.45
2019-03-21T19:28:09.089Z,102608.67
2019-03-21T19:30:40.183Z,102608.55
2019-03-21T19:33:10.992Z,102604.16
2019-03-21T19:35:42.080Z,102599.33
2019-03-21T19:38:15.009Z,102600.62
2019-03-21T19:40:46.164Z,102595.33
2019-03-21T19:43:16.821Z,102593.20
2019-03-21T19:45:47.445Z,102593.55
2019-03-21T19:48:18.618Z,102588.11
2019-03-21T19:50:49.193Z,102578.75
2019-03-21T19:53:20.027Z,102583.23
2019-03-21T19:55:51.135Z,102584.94
2019-03-21T19:58:22.001Z,102589.08
2019-03-21T20:00:52.982Z,102586.80
2019-03-21T20:03:24.836Z,102582.30
2019-03-21T20:06:00.536Z,102579.27
2019-03-21T20:08:30.137Z,102575.37
2019-03-21T20:11:01.795Z,102578.14
2019-03-21T20:13:33.245Z,102570.61
2019-03-21T20:16:03.894Z,102569.77
2019-03-21T20:18:34.921Z,102583.60
2019-03-21T20:21:06.160Z,102576.92
2019-03-21T20:23:37.944Z,102571.71
2019-03-21T20:26:11.923Z,102582.81
2019-03-21T20:28:42.752Z,102585.08
2019-03-21T20:31:13.773Z,102582.08
2019-03-21T20:33:44.636Z,102582.95
2019-03-21T20:36:15.366Z,102584.38
2019-03-21T20:38:45.924Z,102586.56
2019-03-21T20:41:17.395Z,102589.23
2019-03-21T20:43:48.614Z,102584.38
2019-03-21T20:46:19.999Z,102584.03
2019-03-21T20:48:49.981Z,102581.76
2019-03-21T20:51:20.868Z,102586.75
2019-03-21T20:53:53.365Z,102588.09
2019-03-21T20:56:24.086Z,102587.28
2019-03-21T20:58:56.518Z,102583.31
2019-03-21T21:01:27.461Z,102587.81
2019-03-21T21:03:58.134Z,102587.41
2019-03-21T21:06:29.941Z,102580.34
2019-03-21T21:09:00.658Z,102590.59
2019-03-21T21:11:35.189Z,102585.33
2019-03-21T21:14:06.725Z,102586.20
2019-03-21T21:16:38.280Z,102584.48
2019-03-21T21:19:09.173Z,102591.19
2019-03-21T21:21:39.983Z,102593.02
2019-03-21T21:24:10.846Z,102587.28
2019-03-21T21:26:41.646Z,102591.40
2019-03-21T21:29:12.973Z,102594.12
2019-03-21T21:31:43.586Z,102595.53
2019-03-21T21:34:14.078Z,102587.18
2019-03-21T21:36:44.457Z,102583.64
2019-03-21T21:39:15.251Z,102582.87
2019-03-21T21:41:47.683Z,102583.81
2019-03-21T21:44:18.470Z,102582.06
2019-03-21T21:46:49.716Z,102594.55
2019-03-21T21:49:20.248Z,102591.47
2019-03-21T21:51:51.395Z,102595.91
2019-03-21T21:54:22.864Z,102588.82
2019-03-21T21:56:55.001Z,102585.02
2019-03-21T21:59:25.694Z,102591.69
2019-03-21T22:01:56.122Z,102584.11
2019-03-21T22:04:26.475Z,102584.11
2019-03-21T22:06:57.233Z,102577.89
2019-03-21T22:09:28.346Z,102585.03
2019-03-21T22:11:59.588Z,102583.74
2019-03-21T22:14:31.626Z,102577.99
2019-03-21T22:17:02.897Z,102582.02
2019-03-21T22:19:33.874Z,102587.41
2019-03-21T22:22:04.742Z,102574.10
2019-03-21T22:24:35.567Z,102585.66
2019-03-21T22:27:06.981Z,102585.75
2019-03-21T22:29:37.844Z,102581.77
2019-03-21T22:32:09.597Z,102582.25
2019-03-21T22:34:40.176Z,102585.39
2019-03-21T22:37:10.807Z,102582.81
2019-03-21T22:39:41.446Z,102577.12
2019-03-21T22:42:12.004Z,102580.70
2019-03-21T22:44:43.087Z,102579.38
2019-03-21T22:47:13.914Z,102573.59
2019-03-21T22:49:50.627Z,102579.84
2019-03-21T22:52:21.516Z,102576.34
2019-03-21T22:54:52.336Z,102578.14
2019-03-21T22:57:23.831Z,102580.37
2019-03-21T22:59:54.604Z,102578.17
2019-03-21T23:02:25.326Z,102574.23
2019-03-21T23:04:55.973Z,102580.92
2019-03-21T23:07:26.945Z,102577.38
2019-03-21T23:09:58.151Z,102575.58
2019-03-21T23:12:30.774Z,102575.14
2019-03-21T23:15:02.549Z,102571.59
2019-03-21T23:17:33.507Z,102572.55
2019-03-21T23:20:06.188Z,102570.80
2019-03-21T23:22:37.188Z,102568.13
2019-03-21T23:25:09.029Z,102558.34
2019-03-21T23:27:40.207Z,102559.66
2019-03-21T23:30:17.657Z,102561.45
2019-03-21T23:32:48.221Z,102557.01
2019-03-21T23:35:19.203Z,102562.36
2019-03-21T23:37:49.589Z,102559.27
2019-03-21T23:40:20.829Z,102563.27
2019-03-21T23:42:51.505Z,102565.94
2019-03-21T23:45:24.004Z,102566.34
2019-03-21T23:47:55.015Z,102559.75
2019-03-21T23:50:25.698Z,102560.34
2019-03-21T23:52:56.360Z,102563.22
2019-03-21T23:55:26.998Z,102559.86
2019-03-21T23:57:57.695Z,102568.91
